sensor_id;sensor_type;location;lat;lon;timestamp;pressure;altitude;pressure_sealevel;temperature;humidity
21781;BME280;52576;53.614;9.894;2023-11-19T00:00:48;100632.06;;;4.76;98.51
21781;BME280;52576;53.614;9.894;2023-11-19T00:02:55;100625.97;;;4.77;98.69
21781;BME280;52576;53.614;9.894;2023-11-19T00:04:58;100624.28;;;4.76;98.66
21781;BME280;52576;53.614;9.894;2023-11-19T00:07:03;100619.06;;;4.76;98.69
21781;BME280;52576;53.614;9.894;2023-11-19T00:09:08;100616.47;;;4.76;98.58
21781;BME280;52576;53.614;9.894;2023-11-19T00:11:11;100611.28;;;4.76;98.67
21781;BME280;52576;53.614;9.894;2023-11-19T00:13:17;100598.31;;;4.76;98.86
21781;BME280;52576;53.614;9.894;2023-11-19T00:15:20;100588.75;;;4.76;98.80
21781;BME280;52576;53.614;9.894;2023-11-19T00:17:24;100590.44;;;4.77;98.70
21781;BME280;52576;53.614;9.894;2023-11-19T00:19:27;100585.25;;;4.77;98.87
21781;BME280;52576;53.614;9.894;2023-11-19T00:21:30;100587.84;;;4.77;98.98
21781;BME280;52576;53.614;9.894;2023-11-19T00:23:36;100575.72;;;4.78;99.01
21781;BME280;52576;53.614;9.894;2023-11-19T00:25:39;100560.06;;;4.80;98.92
21781;BME280;52576;53.614;9.894;2023-11-19T00:27:41;100554.81;;;4.81;99.09
21781;BME280;52576;53.614;9.894;2023-11-19T00:29:46;100556.47;;;4.82;99.15
21781;BME280;52576;53.614;9.894;2023-11-19T00:31:49;100537.41;;;4.83;99.20
21781;BME280;52576;53.614;9.894;2023-11-19T00:33:53;100521.81;;;4.83;99.14
21781;BME280;52576;53.614;9.894;2023-11-19T00:35:56;100522.66;;;4.84;99.31
21781;BME280;52576;53.614;9.894;2023-11-19T00:37:59;100519.16;;;4.85;99.24
21781;BME280;52576;53.614;9.894;2023-11-19T00:40:06;100513.13;;;4.84;99.30
21781;BME280;52576;53.614;9.894;2023-11-19T00:42:08;100507.91;;;4.84;99.27
21781;BME280;52576;53.614;9.894;2023-11-19T00:44:12;100500.13;;;4.84;99.38
21781;BME280;52576;53.614;9.894;2023-11-19T00:46:15;100498.44;;;4.83;99.30
21781;BME280;52576;53.614;9.894;2023-11-19T00:48:18;100488.06;;;4.83;99.43
21781;BME280;52576;53.614;9.894;2023-11-19T00:50:20;100490.66;;;4.83;99.35
21781;BME280;52576;53.614;9.894;2023-11-19T00:52:24;100498.44;;;4.83;99.44
21781;BME280;52576;53.614;9.894;2023-11-19T00:54:28;100502.72;;;4.84;99.17
21781;BME280;52576;53.614;9.894;2023-11-19T00:56:32;100499.22;;;4.85;99.58
21781;BME280;52576;53.614;9.894;2023-11-19T00:58:35;100483.63;;;4.85;99.54
21781;BME280;52576;53.614;9.894;2023-11-19T01:00:38;100475.09;;;4.83;99.52
21781;BME280;52576;53.614;9.894;2023-11-19T01:02:41;100476.75;;;4.84;99.46
21781;BME280;52576;53.614;9.894;2023-11-19T01:04:45;100456.00;;;4.84;99.58
21781;BME280;52576;53.614;9.894;2023-11-19T01:06:48;100461.19;;;4.84;99.55
21781;BME280;52576;53.614;9.894;2023-11-19T01:08:51;100452.47;;;4.85;99.63
21781;BME280;52576;53.614;9.894;2023-11-19T01:10:55;100454.16;;;4.86;99.71
21781;BME280;52576;53.614;9.894;2023-11-19T01:12:59;100435.06;;;4.87;99.80
21781;BME280;52576;53.614;9.894;2023-11-19T01:15:03;100433.31;;;4.88;99.77
21781;BME280;52576;53.614;9.894;2023-11-19T01:17:05;100412.47;;;4.89;99.77
21781;BME280;52576;53.614;9.894;2023-11-19T01:19:11;100414.16;;;4.90;99.79
21781;BME280;52576;53.614;9.894;2023-11-19T01:21:19;100414.16;;;4.90;99.83
21781;BME280;52576;53.614;9.894;2023-11-19T01:23:23;100416.75;;;4.90;99.82
21781;BME280;52576;53.614;9.894;2023-11-19T01:25:26;100410.63;;;4.91;99.91
21781;BME280;52576;53.614;9.894;2023-11-19T01:27:28;100401.94;;;4.92;99.86
21781;BME280;52576;53.614;9.894;2023-11-19T01:29:33;100395.91;;;4.92;99.88
21781;BME280;52576;53.614;9.894;2023-11-19T01:31:36;100391.53;;;4.92;99.95
21781;BME280;52576;53.614;9.894;2023-11-19T01:33:39;100392.38;;;4.93;99.94
21781;BME280;52576;53.614;9.894;2023-11-19T01:35:43;100382.84;;;4.93;100.00
21781;BME280;52576;53.614;9.894;2023-11-19T01:37:46;100380.13;;;4.95;100.00
21781;BME280;52576;53.614;9.894;2023-11-19T01:39:49;100374.88;;;4.96;100.00
21781;BME280;52576;53.614;9.894;2023-11-19T01:41:55;100357.59;;;4.95;100.00
21781;BME280;52576;53.614;9.894;2023-11-19T01:43:58;100368.75;;;4.97;100.00
21781;BME280;52576;53.614;9.894;2023-11-19T01:46:04;100364.41;;;4.98;100.00
21781;BME280;52576;53.614;9.894;2023-11-19T01:48:06;100354.84;;;4.98;100.00
21781;BME280;52576;53.614;9.894;2023-11-19T01:50:14;100353.94;;;4.99;100.00
21781;BME280;52576;53.614;9.894;2023-11-19T01:52:17;100340.97;;;4.99;100.00
21781;BME280;52576;53.614;9.894;2023-11-19T01:54:20;100345.22;;;5.00;100.00
21781;BME280;52576;53.614;9.894;2023-11-19T01:56:24;100342.63;;;5.00;100.00
21781;BME280;52576;53.614;9.894;2023-11-19T01:58:27;100340.97;;;4.99;100.00
21781;BME280;52576;53.614;9.894;2023-11-19T02:00:31;100336.59;;;5.00;100.00
21781;BME280;52576;53.614;9.894;2023-11-19T02:02:37;100334.84;;;5.00;100.00
21781;BME280;52576;53.614;9.894;2023-11-19T02:04:41;100328.72;;;5.01;100.00
21781;BME280;52576;53.614;9.894;2023-11-19T02:06:45;100318.34;;;5.01;100.00
21781;BME280;52576;53.614;9.894;2023-11-19T02:08:49;100320.03;;;5.02;100.00
21781;BME280;52576;53.614;9.894;2023-11-19T02:10:53;100318.19;;;5.04;100.00
21781;BME280;52576;53.614;9.894;2023-11-19T02:12:58;100319.88;;;5.05;100.00
21781;BME280;52576;53.614;9.894;2023-11-19T02:15:04;100308.56;;;5.06;100.00
21781;BME280;52576;53.614;9.894;2023-11-19T02:17:07;100297.25;;;5.07;100.00
21781;BME280;52576;53.614;9.894;2023-11-19T02:19:28;100291.22;;;5.07;100.00
21781;BME280;52576;53.614;9.894;2023-11-19T02:21:31;100284.28;;;5.07;100.00
21781;BME280;52576;53.614;9.894;2023-11-19T02:23:34;100278.22;;;5.07;100.00
21781;BME280;52576;53.614;9.894;2023-11-19T02:25:37;100281.66;;;5.07;100.00
21781;BME280;52576;53.614;9.894;2023-11-19T02:27:48;100279.84;;;5.09;100.00
21781;BME280;52576;53.614;9.894;2023-11-19T02:29:54;100276.31;;;5.10;100.00
21781;BME280;52576;53.614;9.894;2023-11-19T02:31:57;100264.09;;;5.13;100.00
21781;BME280;52576;53.614;9.894;2023-11-19T02:34:00;100264.09;;;5.13;100.00
21781;BME280;52576;53.614;9.894;2023-11-19T02:36:05;100247.59;;;5.14;100.00
21781;BME280;52576;53.614;9.894;2023-11-19T02:38:08;100257.06;;;5.15;100.00
21781;BME280;52576;53.614;9.894;2023-11-19T02:40:12;100240.56;;;5.16;100.00
21781;BME280;52576;53.614;9.894;2023-11-19T02:42:15;100237.97;;;5.16;100.00
21781;BME280;52576;53.614;9.894;2023-11-19T02:44:19;100236.19;;;5.16;100.00
21781;BME280;52576;53.614;9.894;2023-11-19T02:46:22;100237.03;;;5.17;100.00
21781;BME280;52576;53.614;9.894;2023-11-19T02:48:26;100224.88;;;5.17;100.00
21781;BME280;52576;53.614;9.894;2023-11-19T02:50:29;100211.81;;;5.19;100.00
21781;BME280;52576;53.614;9.894;2023-11-19T02:52:33;100202.28;;;5.19;100.00
21781;BME280;52576;53.614;9.894;2023-11-19T02:54:39;100203.91;;;5.20;100.00
21781;BME280;52576;53.614;9.894;2023-11-19T02:56:43;100197.81;;;5.21;100.00
21781;BME280;52576;53.614;9.894;2023-11-19T02:58:49;100198.56;;;5.23;100.00
21781;BME280;52576;53.614;9.894;2023-11-19T03:00:54;100209.78;;;5.24;100.00
21781;BME280;52576;53.614;9.894;2023-11-19T03:02:59;100175.09;;;5.25;100.00
21781;BME280;52576;53.614;9.894;2023-11-19T03:05:12;100181.88;;;5.27;100.00
21781;BME280;52576;53.614;9.894;2023-11-19T03:07:16;100176.59;;;5.29;100.00
21781;BME280;52576;53.614;9.894;2023-11-19T03:09:19;100166.97;;;5.31;100.00
21781;BME280;52576;53.614;9.894;2023-11-19T03:11:23;100162.53;;;5.33;100.00
21781;BME280;52576;53.614;9.894;2023-11-19T03:13:26;100152.97;;;5.33;100.00
21781;BME280;52576;53.614;9.894;2023-11-19T03:15:29;100149.28;;;5.37;100.00
21781;BME280;52576;53.614;9.894;2023-11-19T03:17:34;100138.91;;;5.37;100.00
21781;BME280;52576;53.614;9.894;2023-11-19T03:19:37;100144.78;;;5.41;100.00
21781;BME280;52576;53.614;9.894;2023-11-19T03:21:41;100141.16;;;5.43;100.00
21781;BME280;52576;53.614;9.894;2023-11-19T03:23:44;100144.59;;;5.44;100.00
21781;BME280;52576;53.614;9.894;2023-11-19T03:25:47;100136.59;;;5.47;100.00
21781;BME280;52576;53.614;9.894;2023-11-19T03:27:50;100130.41;;;5.50;100.00
21781;BME280;52576;53.614;9.894;2023-11-19T03:29:53;100116.41;;;5.52;100.00
21781;BME280;52576;53.614;9.894;2023-11-19T03:31:55;100122.34;;;5.54;100.00
21781;BME280;52576;53.614;9.894;2023-11-19T03:34:00;100117.91;;;5.56;100.00
21781;BME280;52576;53.614;9.894;2023-11-19T03:36:02;100126.47;;;5.58;100.00
21781;BME280;52576;53.614;9.894;2023-11-19T03:38:05;100110.69;;;5.61;100.00
21781;BME280;52576;53.614;9.894;2023-11-19T03:40:09;100100.13;;;5.64;100.00
21781;BME280;52576;53.614;9.894;2023-11-19T03:42:12;100102.47;;;5.69;100.00
21781;BME280;52576;53.614;9.894;2023-11-19T03:44:15;100105.69;;;5.72;100.00
21781;BME280;52576;53.614;9.894;2023-11-19T03:46:18;100094.19;;;5.76;100.00
21781;BME280;52576;53.614;9.894;2023-11-19T03:48:22;100097.38;;;5.82;100.00
21781;BME280;52576;53.614;9.894;2023-11-19T03:50:26;100093.69;;;5.86;100.00
21781;BME280;52576;53.614;9.894;2023-11-19T03:52:30;100095.22;;;5.90;100.00
21781;BME280;52576;53.614;9.894;2023-11-19T03:54:45;100096.72;;;5.94;100.00
21781;BME280;52576;53.614;9.894;2023-11-19T03:56:48;100102.47;;;5.99;100.00
21781;BME280;52576;53.614;9.894;2023-11-19T03:58:51;100097.06;;;6.02;100.00
21781;BME280;52576;53.614;9.894;2023-11-19T04:00:54;100080.38;;;6.06;100.00
21781;BME280;52576;53.614;9.894;2023-11-19T04:02:57;100087.06;;;6.10;100.00
21781;BME280;52576;53.614;9.894;2023-11-19T04:05:01;100086.06;;;6.12;100.00
21781;BME280;52576;53.614;9.894;2023-11-19T04:07:05;100083.19;;;6.17;100.00
21781;BME280;52576;53.614;9.894;2023-11-19T04:09:09;100081.31;;;6.19;100.00
21781;BME280;52576;53.614;9.894;2023-11-19T04:11:13;100079.38;;;6.23;100.00
21781;BME280;52576;53.614;9.894;2023-11-19T04:13:16;100074.06;;;6.24;100.00
21781;BME280;52576;53.614;9.894;2023-11-19T04:15:18;100071.19;;;6.29;100.00
21781;BME280;52576;53.614;9.894;2023-11-19T04:17:21;100067.56;;;6.31;100.00
21781;BME280;52576;53.614;9.894;2023-11-19T04:19:25;100059.56;;;6.34;100.00
21781;BME280;52576;53.614;9.894;2023-11-19T04:21:28;100058.47;;;6.38;100.00
21781;BME280;52576;53.614;9.894;2023-11-19T04:23:33;100062.66;;;6.41;100.00
21781;BME280;52576;53.614;9.894;2023-11-19T04:25:36;100055.50;;;6.44;100.00
21781;BME280;52576;53.614;9.894;2023-11-19T04:27:39;100052.72;;;6.47;100.00
21781;BME280;52576;53.614;9.894;2023-11-19T04:29:43;100049.88;;;6.51;100.00
21781;BME280;52576;53.614;9.894;2023-11-19T04:31:47;100051.38;;;6.55;100.00
21781;BME280;52576;53.614;9.894;2023-11-19T04:33:50;100042.44;;;6.59;100.00
21781;BME280;52576;53.614;9.894;2023-11-19T04:35:54;100041.44;;;6.61;100.00
21781;BME280;52576;53.614;9.894;2023-11-19T04:37:57;100054.16;;;6.66;100.00
21781;BME280;52576;53.614;9.894;2023-11-19T04:40:02;100048.78;;;6.69;100.00
21781;BME280;52576;53.614;9.894;2023-11-19T04:42:06;100051.09;;;6.73;100.00
21781;BME280;52576;53.614;9.894;2023-11-19T04:44:09;100050.03;;;6.76;100.00
21781;BME280;52576;53.614;9.894;2023-11-19T04:46:12;100046.31;;;6.80;100.00
21781;BME280;52576;53.614;9.894;2023-11-19T04:48:15;100046.97;;;6.84;100.00
21781;BME280;52576;53.614;9.894;2023-11-19T04:50:18;100052.81;;;6.87;100.00
21781;BME280;52576;53.614;9.894;2023-11-19T04:52:21;100050.97;;;6.89;100.00
21781;BME280;52576;53.614;9.894;2023-11-19T04:54:24;100045.47;;;6.94;100.00
21781;BME280;52576;53.614;9.894;2023-11-19T04:56:29;100039.13;;;6.98;100.00
21781;BME280;52576;53.614;9.894;2023-11-19T04:58:31;100037.88;;;7.03;100.00
21781;BME280;52576;53.614;9.894;2023-11-19T05:00:35;100028.94;;;7.07;100.00
21781;BME280;52576;53.614;9.894;2023-11-19T05:02:37;100030.41;;;7.11;100.00
21781;BME280;52576;53.614;9.894;2023-11-19T05:04:42;100024.06;;;7.15;100.00
21781;BME280;52576;53.614;9.894;2023-11-19T05:06:45;100024.63;;;7.21;100.00
21781;BME280;52576;53.614;9.894;2023-11-19T05:08:48;100025.16;;;7.26;100.00
21781;BME280;52576;53.614;9.894;2023-11-19T05:10:51;100011.72;;;7.32;100.00
21781;BME280;52576;53.614;9.894;2023-11-19T05:12:55;100016.53;;;7.38;100.00
21781;BME280;52576;53.614;9.894;2023-11-19T05:14:59;100010.91;;;7.44;100.00
21781;BME280;52576;53.614;9.894;2023-11-19T05:17:04;100014.81;;;7.51;100.00
21781;BME280;52576;53.614;9.894;2023-11-19T05:19:07;100010.00;;;7.58;100.00
21781;BME280;52576;53.614;9.894;2023-11-19T05:21:10;99995.72;;;7.63;100.00
21781;BME280;52576;53.614;9.894;2023-11-19T05:23:13;99998.75;;;7.70;100.00
21781;BME280;52576;53.614;9.894;2023-11-19T05:25:18;100002.63;;;7.77;100.00
21781;BME280;52576;53.614;9.894;2023-11-19T05:27:22;99997.81;;;7.83;100.00
21781;BME280;52576;53.614;9.894;2023-11-19T05:29:27;99994.06;;;7.88;100.00
21781;BME280;52576;53.614;9.894;2023-11-19T05:31:30;99997.00;;;7.96;100.00
21781;BME280;52576;53.614;9.894;2023-11-19T05:33:37;100001.81;;;8.02;100.00
21781;BME280;52576;53.614;9.894;2023-11-19T05:35:40;100002.09;;;8.10;100.00
21781;BME280;52576;53.614;9.894;2023-11-19T05:37:43;100002.63;;;8.15;100.00
21781;BME280;52576;53.614;9.894;2023-11-19T05:39:46;99998.66;;;8.22;100.00
21781;BME280;52576;53.614;9.894;2023-11-19T05:41:50;99999.16;;;8.27;100.00
21781;BME280;52576;53.614;9.894;2023-11-19T05:43:53;99993.53;;;8.33;100.00
21781;BME280;52576;53.614;9.894;2023-11-19T05:45:57;99994.06;;;8.38;100.00
21781;BME280;52576;53.614;9.894;2023-11-19T05:48:00;99993.63;;;8.44;100.00
21781;BME280;52576;53.614;9.894;2023-11-19T05:50:06;99992.38;;;8.50;100.00
21781;BME280;52576;53.614;9.894;2023-11-19T05:52:10;100003.44;;;8.54;100.00
21781;BME280;52576;53.614;9.894;2023-11-19T05:54:13;99994.41;;;8.58;100.00
21781;BME280;52576;53.614;9.894;2023-11-19T05:56:17;99998.38;;;8.63;100.00
21781;BME280;52576;53.614;9.894;2023-11-19T05:58:24;99998.06;;;8.68;100.00
21781;BME280;52576;53.614;9.894;2023-11-19T06:00:30;99998.56;;;8.73;100.00
21781;BME280;52576;53.614;9.894;2023-11-19T06:02:35;99994.78;;;8.77;100.00
21781;BME280;52576;53.614;9.894;2023-11-19T06:04:39;99989.94;;;8.83;100.00
21781;BME280;52576;53.614;9.894;2023-11-19T06:06:43;99984.50;;;8.87;100.00
21781;BME280;52576;53.614;9.894;2023-11-19T06:08:46;99990.34;;;8.90;100.00
21781;BME280;52576;53.614;9.894;2023-11-19T06:10:49;99987.50;;;8.93;100.00
21781;BME280;52576;53.614;9.894;2023-11-19T06:12:53;99986.34;;;8.97;100.00
21781;BME280;52576;53.614;9.894;2023-11-19T06:14:57;99989.69;;;8.99;100.00
21781;BME280;52576;53.614;9.894;2023-11-19T06:17:00;99999.72;;;9.05;100.00
21781;BME280;52576;53.614;9.894;2023-11-19T06:19:08;99991.38;;;9.11;100.00
21781;BME280;52576;53.614;9.894;2023-11-19T06:21:12;99991.88;;;9.16;100.00
21781;BME280;52576;53.614;9.894;2023-11-19T06:23:15;99995.84;;;9.22;100.00
21781;BME280;52576;53.614;9.894;2023-11-19T06:25:18;99999.78;;;9.28;100.00
21781;BME280;52576;53.614;9.894;2023-11-19T06:27:21;99997.69;;;9.33;100.00
21781;BME280;52576;53.614;9.894;2023-11-19T06:29:24;100000.75;;;9.38;100.00
21781;BME280;52576;53.614;9.894;2023-11-19T06:31:27;99987.34;;;9.42;100.00
21781;BME280;52576;53.614;9.894;2023-11-19T06:33:30;99990.47;;;9.47;100.00
21781;BME280;52576;53.614;9.894;2023-11-19T06:35:35;99991.91;;;9.51;100.00
21781;BME280;52576;53.614;9.894;2023-11-19T06:37:39;99995.03;;;9.57;100.00
21781;BME280;52576;53.614;9.894;2023-11-19T06:39:43;99992.06;;;9.61;100.00
21781;BME280;52576;53.614;9.894;2023-11-19T06:41:47;99989.91;;;9.66;100.00
21781;BME280;52576;53.614;9.894;2023-11-19T06:43:50;99996.59;;;9.70;100.00
21781;BME280;52576;53.614;9.894;2023-11-19T06:45:54;99986.72;;;9.74;100.00
21781;BME280;52576;53.614;9.894;2023-11-19T06:47:57;99987.34;;;9.77;100.00
21781;BME280;52576;53.614;9.894;2023-11-19T06:50:00;99989.72;;;9.80;100.00
21781;BME280;52576;53.614;9.894;2023-11-19T06:52:08;99998.28;;;9.82;100.00
21781;BME280;52576;53.614;9.894;2023-11-19T06:54:11;100001.50;;;9.86;100.00
21781;BME280;52576;53.614;9.894;2023-11-19T06:56:19;100004.81;;;9.88;100.00
21781;BME280;52576;53.614;9.894;2023-11-19T06:58:21;99993.16;;;9.92;100.00
21781;BME280;52576;53.614;9.894;2023-11-19T07:00:24;100005.06;;;9.96;100.00
21781;BME280;52576;53.614;9.894;2023-11-19T07:02:27;99996.16;;;9.99;100.00
21781;BME280;52576;53.614;9.894;2023-11-19T07:04:30;100001.16;;;10.02;100.00
21781;BME280;52576;53.614;9.894;2023-11-19T07:06:32;100000.94;;;10.05;100.00
21781;BME280;52576;53.614;9.894;2023-11-19T07:08:37;100004.28;;;10.07;100.00
21781;BME280;52576;53.614;9.894;2023-11-19T07:10:41;100015.47;;;10.09;100.00
21781;BME280;52576;53.614;9.894;2023-11-19T07:12:44;100017.97;;;10.10;100.00
21781;BME280;52576;53.614;9.894;2023-11-19T07:14:47;100014.28;;;10.13;100.00
21781;BME280;52576;53.614;9.894;2023-11-19T07:16:51;100009.72;;;10.15;100.00
21781;BME280;52576;53.614;9.894;2023-11-19T07:18:55;100010.44;;;10.17;100.00
21781;BME280;52576;53.614;9.894;2023-11-19T07:20:59;100018.19;;;10.18;100.00
21781;BME280;52576;53.614;9.894;2023-11-19T07:23:02;100004.16;;;10.19;100.00
21781;BME280;52576;53.614;9.894;2023-11-19T07:25:08;100014.53;;;10.21;100.00
21781;BME280;52576;53.614;9.894;2023-11-19T07:27:11;100020.50;;;10.23;100.00
21781;BME280;52576;53.614;9.894;2023-11-19T07:29:14;100016.91;;;10.24;100.00
21781;BME280;52576;53.614;9.894;2023-11-19T07:31:30;100013.34;;;10.25;100.00
21781;BME280;52576;53.614;9.894;2023-11-19T07:33:34;100008.09;;;10.25;100.00
21781;BME280;52576;53.614;9.894;2023-11-19T07:35:37;100014.78;;;10.29;100.00
21781;BME280;52576;53.614;9.894;2023-11-19T07:37:40;100010.38;;;10.30;100.00
21781;BME280;52576;53.614;9.894;2023-11-19T07:39:43;100009.31;;;10.32;100.00
21781;BME280;52576;53.614;9.894;2023-11-19T07:41:48;100006.44;;;10.35;100.00
21781;BME280;52576;53.614;9.894;2023-11-19T07:43:51;100014.06;;;10.38;100.00
21781;BME280;52576;53.614;9.894;2023-11-19T07:45:54;100025.13;;;10.42;100.00
21781;BME280;52576;53.614;9.894;2023-11-19T07:47:57;100024.06;;;10.44;100.00
21781;BME280;52576;53.614;9.894;2023-11-19T07:50:00;100018.56;;;10.47;100.00
21781;BME280;52576;53.614;9.894;2023-11-19T07:52:04;100027.03;;;10.51;100.00
21781;BME280;52576;53.614;9.894;2023-11-19T07:54:22;100028.59;;;10.53;100.00
21781;BME280;52576;53.614;9.894;2023-11-19T07:56:25;100027.63;;;10.54;100.00
21781;BME280;52576;53.614;9.894;2023-11-19T07:58:30;100035.25;;;10.58;100.00
21781;BME280;52576;53.614;9.894;2023-11-19T08:00:33;100038.59;;;10.60;100.00
21781;BME280;52576;53.614;9.894;2023-11-19T08:02:36;100034.06;;;10.62;100.00
21781;BME280;52576;53.614;9.894;2023-11-19T08:04:39;100036.56;;;10.63;100.00
21781;BME280;52576;53.614;9.894;2023-11-19T08:06:46;100043.31;;;10.66;100.00
21781;BME280;52576;53.614;9.894;2023-11-19T08:08:49;100046.66;;;10.68;100.00
21781;BME280;52576;53.614;9.894;2023-11-19T08:10:54;100041.41;;;10.68;100.00
21781;BME280;52576;53.614;9.894;2023-11-19T08:12:58;100044.75;;;10.70;100.00
21781;BME280;52576;53.614;9.894;2023-11-19T08:15:03;100047.25;;;10.71;100.00
21781;BME280;52576;53.614;9.894;2023-11-19T08:17:06;100041.06;;;10.72;100.00
21781;BME280;52576;53.614;9.894;2023-11-19T08:19:09;100049.66;;;10.74;100.00
21781;BME280;52576;53.614;9.894;2023-11-19T08:21:12;100050.47;;;10.75;100.00
21781;BME280;52576;53.614;9.894;2023-11-19T08:23:16;100060.72;;;10.78;100.00
21781;BME280;52576;53.614;9.894;2023-11-19T08:25:20;100062.38;;;10.79;100.00
21781;BME280;52576;53.614;9.894;2023-11-19T08:27:23;100050.94;;;10.80;100.00
21781;BME280;52576;53.614;9.894;2023-11-19T08:29:28;100053.47;;;10.81;100.00
21781;BME280;52576;53.614;9.894;2023-11-19T08:31:33;100057.63;;;10.84;100.00
21781;BME280;52576;53.614;9.894;2023-11-19T08:33:36;100062.63;;;10.87;100.00
21781;BME280;52576;53.614;9.894;2023-11-19T08:35:39;100069.31;;;10.91;100.00
21781;BME280;52576;53.614;9.894;2023-11-19T08:37:42;100060.34;;;10.94;100.00
21781;BME280;52576;53.614;9.894;2023-11-19T08:39:47;100054.00;;;10.96;100.00
21781;BME280;52576;53.614;9.894;2023-11-19T08:41:50;100065.22;;;10.98;100.00
21781;BME280;52576;53.614;9.894;2023-11-19T08:43:53;100069.50;;;10.99;100.00
21781;BME280;52576;53.614;9.894;2023-11-19T08:45:56;100071.16;;;11.00;99.95
21781;BME280;52576;53.614;9.894;2023-11-19T08:48:01;100072.84;;;11.01;99.57
21781;BME280;52576;53.614;9.894;2023-11-19T08:50:05;100066.63;;;11.02;99.49
21781;BME280;52576;53.614;9.894;2023-11-19T08:52:08;100073.56;;;11.03;99.24
21781;BME280;52576;53.614;9.894;2023-11-19T08:54:12;100082.13;;;11.05;99.06
21781;BME280;52576;53.614;9.894;2023-11-19T08:56:16;100073.31;;;11.06;99.15
21781;BME280;52576;53.614;9.894;2023-11-19T08:58:19;100075.81;;;11.08;99.01
21781;BME280;52576;53.614;9.894;2023-11-19T09:00:22;100073.06;;;11.09;98.50
21781;BME280;52576;53.614;9.894;2023-11-19T09:02:25;100076.66;;;11.08;98.36
21781;BME280;52576;53.614;9.894;2023-11-19T09:04:29;100077.47;;;11.09;98.26
21781;BME280;52576;53.614;9.894;2023-11-19T09:06:32;100081.91;;;11.08;98.19
21781;BME280;52576;53.614;9.894;2023-11-19T09:08:35;100082.00;;;11.07;97.90
21781;BME280;52576;53.614;9.894;2023-11-19T09:10:38;100084.63;;;11.07;97.92
21781;BME280;52576;53.614;9.894;2023-11-19T09:12:40;100092.38;;;11.08;97.76
21781;BME280;52576;53.614;9.894;2023-11-19T09:14:43;100095.97;;;11.07;97.76
21781;BME280;52576;53.614;9.894;2023-11-19T09:16:47;100093.22;;;11.09;97.40
21781;BME280;52576;53.614;9.894;2023-11-19T09:18:50;100099.06;;;11.12;97.38
21781;BME280;52576;53.614;9.894;2023-11-19T09:20:55;100092.63;;;11.16;97.23
21781;BME280;52576;53.614;9.894;2023-11-19T09:22:58;100097.59;;;11.19;97.29
21781;BME280;52576;53.614;9.894;2023-11-19T09:25:01;100093.88;;;11.22;96.87
21781;BME280;52576;53.614;9.894;2023-11-19T09:27:04;100092.94;;;11.23;96.46
21781;BME280;52576;53.614;9.894;2023-11-19T09:29:07;100104.97;;;11.26;96.27
21781;BME280;52576;53.614;9.894;2023-11-19T09:31:13;100103.06;;;11.28;95.70
21781;BME280;52576;53.614;9.894;2023-11-19T09:33:16;100113.31;;;11.31;95.71
21781;BME280;52576;53.614;9.894;2023-11-19T09:35:19;100113.06;;;11.34;95.13
21781;BME280;52576;53.614;9.894;2023-11-19T09:37:24;100114.50;;;11.38;94.90
21781;BME280;52576;53.614;9.894;2023-11-19T09:39:27;100104.47;;;11.43;94.42
21781;BME280;52576;53.614;9.894;2023-11-19T09:41:31;100107.66;;;11.46;94.01
21781;BME280;52576;53.614;9.894;2023-11-19T09:43:36;100101.31;;;11.49;93.62
21781;BME280;52576;53.614;9.894;2023-11-19T09:45:47;100111.56;;;11.52;93.34
21781;BME280;52576;53.614;9.894;2023-11-19T09:47:52;100102.75;;;11.53;92.64
21781;BME280;52576;53.614;9.894;2023-11-19T09:49:56;100111.22;;;11.56;92.61
21781;BME280;52576;53.614;9.894;2023-11-19T09:52:00;100105.59;;;11.61;92.02
21781;BME280;52576;53.614;9.894;2023-11-19T09:54:06;100101.50;;;11.68;91.96
21781;BME280;52576;53.614;9.894;2023-11-19T09:56:09;100100.03;;;11.75;91.75
21781;BME280;52576;53.614;9.894;2023-11-19T09:58:16;100105.06;;;11.78;91.60
21781;BME280;52576;53.614;9.894;2023-11-19T10:00:21;100092.53;;;11.82;90.89
21781;BME280;52576;53.614;9.894;2023-11-19T10:02:24;100095.03;;;11.83;90.62
21781;BME280;52576;53.614;9.894;2023-11-19T10:04:30;100091.44;;;11.84;90.45
21781;BME280;52576;53.614;9.894;2023-11-19T10:06:32;100089.78;;;11.83;90.13
21781;BME280;52576;53.614;9.894;2023-11-19T10:08:37;100093.59;;;11.79;89.76
21781;BME280;52576;53.614;9.894;2023-11-19T10:10:42;100098.47;;;11.73;89.64
21781;BME280;52576;53.614;9.894;2023-11-19T10:12:45;100101.75;;;11.65;89.24
21781;BME280;52576;53.614;9.894;2023-11-19T10:14:51;100103.34;;;11.56;89.40
21781;BME280;52576;53.614;9.894;2023-11-19T10:16:54;100102.28;;;11.48;89.73
21781;BME280;52576;53.614;9.894;2023-11-19T10:18:58;100103.63;;;11.42;89.67
21781;BME280;52576;53.614;9.894;2023-11-19T10:21:00;100107.59;;;11.37;90.20
21781;BME280;52576;53.614;9.894;2023-11-19T10:23:03;100105.31;;;11.32;90.50
21781;BME280;52576;53.614;9.894;2023-11-19T10:25:21;100102.22;;;11.27;90.88
21781;BME280;52576;53.614;9.894;2023-11-19T10:27:26;100109.50;;;11.23;90.82
21781;BME280;52576;53.614;9.894;2023-11-19T10:29:30;100106.41;;;11.18;91.26
21781;BME280;52576;53.614;9.894;2023-11-19T10:31:33;100112.63;;;11.17;91.20
21781;BME280;52576;53.614;9.894;2023-11-19T10:33:37;100103.22;;;11.15;91.54
21781;BME280;52576;53.614;9.894;2023-11-19T10:35:51;100112.88;;;11.14;91.74
21781;BME280;52576;53.614;9.894;2023-11-19T10:37:59;100109.31;;;11.15;91.91
21781;BME280;52576;53.614;9.894;2023-11-19T10:40:03;100115.38;;;11.16;91.70
21781;BME280;52576;53.614;9.894;2023-11-19T10:42:21;100110.97;;;11.16;91.55
21781;BME280;52576;53.614;9.894;2023-11-19T10:44:33;100105.72;;;11.16;91.53
21781;BME280;52576;53.614;9.894;2023-11-19T10:46:49;100099.91;;;11.13;92.09
21781;BME280;52576;53.614;9.894;2023-11-19T10:48:56;100107.28;;;11.08;92.14